Relevés horaires Beauvechain (Belgique)


Relevés horaires à Beauvechain - Mercredi 08 Avr. 2020
Heure UTC1 Température [°C] Vent [km/h] Hum. [%] Pres.4 [hPa] Visi. [Km] Nébu. [octa] Préc.5 [mm] Cond.
2m. Res. Ros. Dir.2 Vit. Moy. Raf.3
23:00 16.5 16.5 2.9 NNO 1.9 -- 5.6 40 1023.3(0.2/3h) 20 -- -- --
22:00 17.1 17.1 2.5 NNO 1.9 -- 1.9 38 1023.2(0.4/3h) 20 -- -- --
21:00 19.4 19.4 2.4 NNO 1.9 -- 3.7 32 1023.1(0.7/3h) 20 -- -- --
20:00 19.6 19.6 2.8 NNO 1.9 -- 1.9 33 1023(0.6/3h) 20 -- -- --
19:00 19.7 19.7 3.7 NNO 1.9 -- 3.7 35 1022.7(0.4/3h) 20 -- -- --
18:00 20.7 20.7 4.1 NE 3.7 -- 9.3 34 1022.2(-0.2/3h) 20 -- -- --
17:00 20.4 20.4 8.5 NE 3.7 -- 7.4 46 1022.2(-0.7/3h) 20 -- -- --
16:00 23.4 23.4 2.6 NNO 1.9 -- 7.4 26 1022.1(-1.2/3h) 20 -- -- --
15:00 23.5 23.5 0.3 SSO 3.7 -- 9.3 22 1022.3(-1.3/3h) 20 -- -- --
14:00 22.8 22.8 1.0 SE 3.7 -- 9.3 24 1023(-1.1/3h) 20 -- -- --
13:00 23.6 23.6 2.4 ESE 3.7 -- 7.4 25 1023.2(-1.3/3h) 20 -- -- --
12:00 23.3 23.3 2.4 SSE 3.7 -- 9.3 25 1023.7(-1.1/3h) 20 -- -- --
11:00 22.7 22.7 3.6 NNO 1.9 -- 9.3 29 1024(-0.8/3h) 18 -- -- --
10:00 21.0 21.0 8.1 NNO 3.7 -- 7.4 43 1024.7(-0.3/3h) 18 -- -- --
09:00 19.1 19.1 7.4 SSO 3.7 -- 9.3 47 1025.2(0.0/3h) 20 -- -- --
08:00 16.3 16.3 7.6 NNO 1.9 -- 1.9 56 1025.2(0.1/3h) 18 -- -- --
07:00 12.0 12.0 6.9 NNO 1.9 -- 1.9 71 1025.7(0.0/3h) 17 -- -- --
06:00 13.3 13.3 6.3 NNO 1.9 -- 5.6 63 1025.4(-0.4/3h) 20 -- -- --
05:00 11.6 11.6 5.6 NNO 1.9 -- 0.0 67 1025.5(-0.8/3h) 19 -- -- --
04:00 10.6 10.6 6.6 NNO 1.9 -- 1.9 76 1025.5(-1.0/3h) 16 -- -- --
03:00 10.7 10.7 6.9 NNO 1.9 -- 5.6 77 1026(-1.2/3h) 11 -- -- --
02:00 12.6 12.6 7.3 NNO 1.9 -- 3.7 70 1026.2(-1.1/3h) 13 -- -- --
01:00 12.9 12.9 7.6 NNO 1.9 -- 5.6 70 1026.5(-0.9/3h) 11 -- -- --
00:00 13.0 13.0 7.8 E 3.7 -- 7.4 71 1027.2(-0.6/3h) 9 -- -- --

1 Coordinated Universal Time. Actuellement il est 12:00 locale et 10:00 UTC.

2 Le vent souffle depuis la direction indiquée vers la direction oposée.

3 Les rafales max. sont disponible 40 min après l'heure du relevé.

4 Pour les stations d'altitude (plus de 600m) le géopotentiel du niveau le plus proche de la pression obligatoire est indiqué.

5 Les stations disposant d'un diffuseur peuvent indiquer "trace". Cela signifie que des précipitations ont touchés le sol mais que la quantité est inférieure à 0.1 mm.

Récapitulatif de la journée
Température [°C] Vent [km/h] Ensoleillement4 [h] Precipitations totale5 [mm] Pression [Hpa]
Min1 Max.2 Moy.3 Max. Min Max.
9.5 24.2 0 9.3 0 h 0 min 0 1022.1 1027.2

1 Température minimale relevée entre 18:00 UTC la veille et 18:00 UTC le jour donné.

2 Température maximale relevée entre 06:00 UTC le jour donné et 06:00 UTC le lendemain.

3 Vent moyen de la journée basé sur les relevés horaires.

4 Ensoleillement en heures relevé entre 06:00 UTC la veille et 06:00 UTC le jour donné.

5 Précipitations totales tombées entre 06:00 UTC la jour donné et 06:00 UTC le lendemain.

Graphiques horaires